Pagrindinis puslapis
METAR-TAF:

METAR-TAF

Oro uostai :

Kristianstadas, Švedija

platuma: 55-55N, ilguma: 014-05E, Aukštis: 23 m

Dabartinis oras

Ataskaita buvo paskelbta 15 minutes, ne 03:20 UTC
Vėjas 6 kt iš Vakarų
Temperatūra 16°C
Drėgmė 77%
Slėgis 1015 hPa
Matomumas 10 km arba daugiau

METAR: ESMK 250320Z AUTO 28006KT 9999 OVC066/// 16/12 Q1015

Laikas: 05:35 (03:35 UTC)

Prognozė

Ataskaita buvo paskelbta 13 valandos ir 35 minutes, ne 14:00 UTC
Prognozė galioja nuo 24 metu 15 UTC su 24 metu 19 UTC
Vėjas 8 kt iš Šiaurės Vakarų
Matomumas 10 km arba daugiau
Išsisklaidę debesys ne aukštis 3000 ft

TAF: ESMK 241400Z 2415/2419 31008KT 9999 SCT030

Orai ataskaitas ir orų prognozės (METAR, TAF).

turimą stotys yra geltonos ir raudonos taškus žemėlapyje.

Perkelti pele per norėdami pamatyti stoties vardą.

Tada spustelėkite, norėdami matyti oro stebėjimo ir prognozės.

Norėdami pakeisti žemėlapį: spustelėkite ant žalios mygtukų su juodo kryžiaus žemyn,; žalią mygtuką su brūkšneliu, jei norite nutolinti; arba žalių rodyklių gretimoms žemėlapius.


METAR-TAF: